sensor_id;sensor_type;location;lat;lon;timestamp;pressure;altitude;pressure_sealevel;temperature;humidity
5812;BME280;2932;52.400;9.558;2023-07-09T00:02:25;101291.03;;;27.65;54.11
5812;BME280;2932;52.400;9.558;2023-07-09T00:04:51;101295.56;;;27.63;54.10
5812;BME280;2932;52.400;9.558;2023-07-09T00:07:37;101292.72;;;27.63;54.41
5812;BME280;2932;52.400;9.558;2023-07-09T00:10:03;101302.50;;;27.62;53.95
5812;BME280;2932;52.400;9.558;2023-07-09T00:12:28;101297.53;;;27.49;53.93
5812;BME280;2932;52.400;9.558;2023-07-09T00:14:53;101305.00;;;27.43;54.48
5812;BME280;2932;52.400;9.558;2023-07-09T00:17:31;101300.66;;;27.39;54.43
5812;BME280;2932;52.400;9.558;2023-07-09T00:19:58;101304.38;;;27.36;54.08
5812;BME280;2932;52.400;9.558;2023-07-09T00:22:24;101303.06;;;27.40;53.84
5812;BME280;2932;52.400;9.558;2023-07-09T00:24:50;101302.34;;;27.36;54.12
5812;BME280;2932;52.400;9.558;2023-07-09T00:27:20;101303.69;;;27.32;53.92
5812;BME280;2932;52.400;9.558;2023-07-09T00:29:47;101311.06;;;27.29;54.22
5812;BME280;2932;52.400;9.558;2023-07-09T00:32:17;101306.06;;;27.33;54.13
5812;BME280;2932;52.400;9.558;2023-07-09T00:34:46;101309.72;;;27.34;54.59
5812;BME280;2932;52.400;9.558;2023-07-09T00:37:15;101309.81;;;27.30;54.15
5812;BME280;2932;52.400;9.558;2023-07-09T00:39:42;101300.56;;;27.26;54.77
5812;BME280;2932;52.400;9.558;2023-07-09T00:42:15;101298.63;;;27.23;54.97
5812;BME280;2932;52.400;9.558;2023-07-09T00:44:43;101301.53;;;27.19;54.58
5812;BME280;2932;52.400;9.558;2023-07-09T00:47:17;101300.94;;;27.12;54.67
5812;BME280;2932;52.400;9.558;2023-07-09T00:49:44;101298.28;;;27.05;54.15
5812;BME280;2932;52.400;9.558;2023-07-09T00:52:38;101292.25;;;27.03;54.19
5812;BME280;2932;52.400;9.558;2023-07-09T00:55:12;101300.50;;;26.97;54.31
5812;BME280;2932;52.400;9.558;2023-07-09T00:57:42;101300.94;;;26.96;54.46
5812;BME280;2932;52.400;9.558;2023-07-09T01:00:12;101297.25;;;26.95;55.00
5812;BME280;2932;52.400;9.558;2023-07-09T01:02:44;101287.22;;;26.90;54.84
5812;BME280;2932;52.400;9.558;2023-07-09T01:05:12;101292.03;;;26.77;55.69
5812;BME280;2932;52.400;9.558;2023-07-09T01:07:40;101291.84;;;26.84;55.66
5812;BME280;2932;52.400;9.558;2023-07-09T01:10:06;101293.44;;;26.85;55.69
5812;BME280;2932;52.400;9.558;2023-07-09T01:12:31;101292.63;;;26.85;54.99
5812;BME280;2932;52.400;9.558;2023-07-09T01:14:57;101290.16;;;26.87;54.89
5812;BME280;2932;52.400;9.558;2023-07-09T01:17:25;101282.50;;;26.84;54.50
5812;BME280;2932;52.400;9.558;2023-07-09T01:19:53;101288.28;;;26.80;54.65
5812;BME280;2932;52.400;9.558;2023-07-09T01:22:20;101293.34;;;26.73;54.29
5812;BME280;2932;52.400;9.558;2023-07-09T01:24:59;101298.66;;;26.71;55.11
5812;BME280;2932;52.400;9.558;2023-07-09T01:27:30;101293.06;;;26.67;55.01
5812;BME280;2932;52.400;9.558;2023-07-09T01:29:57;101295.09;;;26.67;55.43
5812;BME280;2932;52.400;9.558;2023-07-09T01:32:23;101289.88;;;26.65;54.95
5812;BME280;2932;52.400;9.558;2023-07-09T01:34:50;101292.00;;;26.61;55.25
5812;BME280;2932;52.400;9.558;2023-07-09T01:37:20;101292.31;;;26.47;56.29
5812;BME280;2932;52.400;9.558;2023-07-09T01:39:52;101294.16;;;26.37;56.58
5812;BME280;2932;52.400;9.558;2023-07-09T01:42:20;101291.88;;;26.29;56.55
5812;BME280;2932;52.400;9.558;2023-07-09T01:44:47;101289.72;;;26.36;55.89
5812;BME280;2932;52.400;9.558;2023-07-09T01:47:12;101278.81;;;26.35;55.58
5812;BME280;2932;52.400;9.558;2023-07-09T01:49:38;101286.44;;;26.38;55.10
5812;BME280;2932;52.400;9.558;2023-07-09T01:52:06;101288.59;;;26.30;54.69
5812;BME280;2932;52.400;9.558;2023-07-09T01:54:34;101293.00;;;26.35;54.58
5812;BME280;2932;52.400;9.558;2023-07-09T01:59:50;101287.75;;;26.33;54.54
5812;BME280;2932;52.400;9.558;2023-07-09T02:02:17;101289.03;;;26.29;54.36
5812;BME280;2932;52.400;9.558;2023-07-09T02:04:49;101281.41;;;26.25;53.86
5812;BME280;2932;52.400;9.558;2023-07-09T02:07:15;101284.81;;;26.17;54.40
5812;BME280;2932;52.400;9.558;2023-07-09T02:09:41;101282.44;;;26.15;54.30
5812;BME280;2932;52.400;9.558;2023-07-09T02:12:07;101285.25;;;26.15;54.28
5812;BME280;2932;52.400;9.558;2023-07-09T02:14:32;101277.19;;;26.14;54.26
5812;BME280;2932;52.400;9.558;2023-07-09T02:16:58;101280.91;;;26.11;54.29
5812;BME280;2932;52.400;9.558;2023-07-09T02:19:23;101276.03;;;26.11;54.53
5812;BME280;2932;52.400;9.558;2023-07-09T02:21:48;101275.28;;;26.07;54.64
5812;BME280;2932;52.400;9.558;2023-07-09T02:24:14;101275.28;;;26.07;54.96
5812;BME280;2932;52.400;9.558;2023-07-09T02:26:39;101282.28;;;26.03;55.18
5812;BME280;2932;52.400;9.558;2023-07-09T02:29:04;101281.47;;;26.02;55.11
5812;BME280;2932;52.400;9.558;2023-07-09T02:31:30;101284.31;;;26.02;54.89
5812;BME280;2932;52.400;9.558;2023-07-09T02:33:56;101279.06;;;26.01;55.09
5812;BME280;2932;52.400;9.558;2023-07-09T02:36:22;101282.72;;;26.01;54.94
5812;BME280;2932;52.400;9.558;2023-07-09T02:38:47;101280.69;;;26.02;55.12
5812;BME280;2932;52.400;9.558;2023-07-09T02:41:12;101292.13;;;25.98;54.86
5812;BME280;2932;52.400;9.558;2023-07-09T02:43:37;101298.72;;;25.91;55.37
5812;BME280;2932;52.400;9.558;2023-07-09T02:46:03;101289.94;;;25.86;55.34
5812;BME280;2932;52.400;9.558;2023-07-09T02:48:28;101283.16;;;25.80;55.58
5812;BME280;2932;52.400;9.558;2023-07-09T02:50:54;101290.19;;;25.72;55.94
5812;BME280;2932;52.400;9.558;2023-07-09T02:53:19;101277.38;;;25.64;55.40
5812;BME280;2932;52.400;9.558;2023-07-09T02:55:45;101283.00;;;25.67;55.73
5812;BME280;2932;52.400;9.558;2023-07-09T02:58:10;101281.44;;;25.63;55.44
5812;BME280;2932;52.400;9.558;2023-07-09T03:00:35;101288.47;;;25.54;55.18
5812;BME280;2932;52.400;9.558;2023-07-09T03:03:00;101289.09;;;25.66;55.04
5812;BME280;2932;52.400;9.558;2023-07-09T03:05:26;101289.94;;;25.63;54.68
5812;BME280;2932;52.400;9.558;2023-07-09T03:07:53;101286.69;;;25.64;55.02
5812;BME280;2932;52.400;9.558;2023-07-09T03:10:19;101277.00;;;25.62;55.01
5812;BME280;2932;52.400;9.558;2023-07-09T03:12:44;101276.28;;;25.57;54.63
5812;BME280;2932;52.400;9.558;2023-07-09T03:15:09;101281.16;;;25.57;54.67
5812;BME280;2932;52.400;9.558;2023-07-09T03:17:35;101279.38;;;25.43;54.74
5812;BME280;2932;52.400;9.558;2023-07-09T03:20:00;101284.19;;;25.46;54.84
5812;BME280;2932;52.400;9.558;2023-07-09T03:22:28;101279.69;;;25.49;55.11
5812;BME280;2932;52.400;9.558;2023-07-09T03:24:54;101289.34;;;25.51;54.71
5812;BME280;2932;52.400;9.558;2023-07-09T03:27:19;101291.81;;;25.49;54.85
5812;BME280;2932;52.400;9.558;2023-07-09T03:29:44;101295.44;;;25.50;54.88
5812;BME280;2932;52.400;9.558;2023-07-09T03:32:09;101296.63;;;25.52;54.47
5812;BME280;2932;52.400;9.558;2023-07-09T03:34:35;101300.19;;;25.56;54.81
5812;BME280;2932;52.400;9.558;2023-07-09T03:37:00;101306.13;;;25.62;54.91
5812;BME280;2932;52.400;9.558;2023-07-09T03:39:25;101302.06;;;25.63;55.00
5812;BME280;2932;52.400;9.558;2023-07-09T03:41:51;101300.47;;;25.62;54.72
5812;BME280;2932;52.400;9.558;2023-07-09T03:44:16;101304.09;;;25.63;55.03
5812;BME280;2932;52.400;9.558;2023-07-09T03:46:41;101303.63;;;25.68;54.88
5812;BME280;2932;52.400;9.558;2023-07-09T03:49:07;101304.88;;;25.67;54.83
5812;BME280;2932;52.400;9.558;2023-07-09T03:51:35;101293.72;;;25.56;54.80
5812;BME280;2932;52.400;9.558;2023-07-09T03:54:00;101299.44;;;25.52;54.72
5812;BME280;2932;52.400;9.558;2023-07-09T03:56:26;101297.78;;;25.55;54.89
5812;BME280;2932;52.400;9.558;2023-07-09T03:58:51;101300.88;;;25.64;54.69
5812;BME280;2932;52.400;9.558;2023-07-09T04:01:16;101309.88;;;25.59;54.89
5812;BME280;2932;52.400;9.558;2023-07-09T04:03:42;101304.53;;;25.61;54.98
5812;BME280;2932;52.400;9.558;2023-07-09T04:06:07;101303.63;;;25.68;55.20
5812;BME280;2932;52.400;9.558;2023-07-09T04:08:32;101302.03;;;25.67;54.87
5812;BME280;2932;52.400;9.558;2023-07-09T04:11:02;101303.63;;;25.68;54.87
5812;BME280;2932;52.400;9.558;2023-07-09T04:13:27;101298.03;;;25.64;55.17
5812;BME280;2932;52.400;9.558;2023-07-09T04:15:54;101302.47;;;25.65;54.92
5812;BME280;2932;52.400;9.558;2023-07-09T04:18:19;101297.09;;;25.71;54.57
5812;BME280;2932;52.400;9.558;2023-07-09T04:20:49;101302.41;;;25.69;54.52
5812;BME280;2932;52.400;9.558;2023-07-09T04:23:14;101301.53;;;25.72;54.43
5812;BME280;2932;52.400;9.558;2023-07-09T04:25:40;101299.06;;;25.74;54.41
5812;BME280;2932;52.400;9.558;2023-07-09T04:28:05;101292.47;;;25.80;54.85
5812;BME280;2932;52.400;9.558;2023-07-09T04:30:31;101288.97;;;25.73;54.61
5812;BME280;2932;52.400;9.558;2023-07-09T04:32:57;101297.09;;;25.71;54.88
5812;BME280;2932;52.400;9.558;2023-07-09T04:35:22;101292.97;;;25.75;54.50
5812;BME280;2932;52.400;9.558;2023-07-09T04:37:48;101294.50;;;25.80;54.72
5812;BME280;2932;52.400;9.558;2023-07-09T04:40:13;101294.88;;;25.82;54.62
5812;BME280;2932;52.400;9.558;2023-07-09T04:42:40;101299.91;;;25.94;54.19
5812;BME280;2932;52.400;9.558;2023-07-09T04:45:07;101293.88;;;25.92;54.61
5812;BME280;2932;52.400;9.558;2023-07-09T04:47:34;101293.13;;;25.88;54.58
5812;BME280;2932;52.400;9.558;2023-07-09T04:49:59;101298.28;;;25.93;54.54
5812;BME280;2932;52.400;9.558;2023-07-09T04:52:25;101297.56;;;25.89;54.23
5812;BME280;2932;52.400;9.558;2023-07-09T04:54:50;101302.56;;;26.01;54.24
5812;BME280;2932;52.400;9.558;2023-07-09T04:57:16;101304.16;;;26.02;54.09
5812;BME280;2932;52.400;9.558;2023-07-09T04:59:42;101305.41;;;26.01;54.10
5812;BME280;2932;52.400;9.558;2023-07-09T05:02:07;101305.63;;;26.10;54.23
5812;BME280;2932;52.400;9.558;2023-07-09T05:04:33;101301.69;;;26.04;54.16
5812;BME280;2932;52.400;9.558;2023-07-09T05:06:59;101303.72;;;26.04;54.06
5812;BME280;2932;52.400;9.558;2023-07-09T05:09:24;101303.53;;;26.14;53.97
5812;BME280;2932;52.400;9.558;2023-07-09T05:11:50;101302.06;;;26.06;53.80
5812;BME280;2932;52.400;9.558;2023-07-09T05:14:16;101303.72;;;26.04;53.53
5812;BME280;2932;52.400;9.558;2023-07-09T05:16:43;101307.00;;;26.02;53.84
5812;BME280;2932;52.400;9.558;2023-07-09T05:19:08;101304.91;;;26.06;53.73
5812;BME280;2932;52.400;9.558;2023-07-09T05:21:34;101304.81;;;26.10;54.03
5812;BME280;2932;52.400;9.558;2023-07-09T05:23:59;101304.25;;;26.18;53.78
5812;BME280;2932;52.400;9.558;2023-07-09T05:26:25;101306.66;;;26.20;53.63
5812;BME280;2932;52.400;9.558;2023-07-09T05:28:50;101304.25;;;26.18;53.60
5812;BME280;2932;52.400;9.558;2023-07-09T05:31:16;101305.47;;;26.17;53.33
5812;BME280;2932;52.400;9.558;2023-07-09T05:33:41;101303.53;;;26.14;53.71
5812;BME280;2932;52.400;9.558;2023-07-09T05:36:08;101299.81;;;26.17;53.75
5812;BME280;2932;52.400;9.558;2023-07-09T05:38:33;101301.13;;;26.13;54.00
5812;BME280;2932;52.400;9.558;2023-07-09T05:41:00;101302.66;;;26.17;53.88
5812;BME280;2932;52.400;9.558;2023-07-09T05:43:26;101310.00;;;26.15;53.92
5812;BME280;2932;52.400;9.558;2023-07-09T05:45:51;101314.00;;;26.17;53.79
5812;BME280;2932;52.400;9.558;2023-07-09T05:48:17;101309.56;;;26.16;53.90
5812;BME280;2932;52.400;9.558;2023-07-09T05:50:42;101300.03;;;26.27;54.12
5812;BME280;2932;52.400;9.558;2023-07-09T05:53:08;101310.13;;;26.28;53.67
5812;BME280;2932;52.400;9.558;2023-07-09T05:55:37;101312.41;;;26.16;53.77
5812;BME280;2932;52.400;9.558;2023-07-09T05:58:02;101308.97;;;26.25;53.59
5812;BME280;2932;52.400;9.558;2023-07-09T06:00:28;101311.97;;;26.18;54.36
5812;BME280;2932;52.400;9.558;2023-07-09T06:02:53;101317.19;;;26.19;53.87
5812;BME280;2932;52.400;9.558;2023-07-09T06:05:18;101318.28;;;26.25;54.05
5812;BME280;2932;52.400;9.558;2023-07-09T06:07:45;101312.50;;;26.33;53.85
5812;BME280;2932;52.400;9.558;2023-07-09T06:10:11;101315.44;;;26.45;53.32
5812;BME280;2932;52.400;9.558;2023-07-09T06:12:36;101309.19;;;26.54;53.62
5812;BME280;2932;52.400;9.558;2023-07-09T06:15:02;101310.97;;;26.64;53.27
5812;BME280;2932;52.400;9.558;2023-07-09T06:17:27;101319.84;;;26.66;52.84
5812;BME280;2932;52.400;9.558;2023-07-09T06:19:53;101308.06;;;26.68;53.19
5812;BME280;2932;52.400;9.558;2023-07-09T06:22:18;101320.66;;;26.67;52.68
5812;BME280;2932;52.400;9.558;2023-07-09T06:24:45;101307.72;;;26.82;53.21
5812;BME280;2932;52.400;9.558;2023-07-09T06:27:10;101310.03;;;26.87;52.75
5812;BME280;2932;52.400;9.558;2023-07-09T06:29:36;101320.44;;;26.94;52.65
5812;BME280;2932;52.400;9.558;2023-07-09T06:32:01;101311.31;;;27.02;52.42
5812;BME280;2932;52.400;9.558;2023-07-09T06:34:26;101313.81;;;27.00;52.15
5812;BME280;2932;52.400;9.558;2023-07-09T06:36:52;101319.06;;;27.18;51.99
5812;BME280;2932;52.400;9.558;2023-07-09T06:39:18;101315.50;;;27.14;51.84
5812;BME280;2932;52.400;9.558;2023-07-09T06:41:44;101320.38;;;27.30;51.58
5812;BME280;2932;52.400;9.558;2023-07-09T06:44:09;101328.28;;;27.22;51.29
5812;BME280;2932;52.400;9.558;2023-07-09T06:46:35;101319.94;;;27.31;51.60
5812;BME280;2932;52.400;9.558;2023-07-09T06:49:02;101320.28;;;27.33;51.38
5812;BME280;2932;52.400;9.558;2023-07-09T06:51:29;101316.56;;;27.36;51.63
5812;BME280;2932;52.400;9.558;2023-07-09T06:53:54;101317.97;;;27.44;51.56
5812;BME280;2932;52.400;9.558;2023-07-09T06:56:19;101320.47;;;27.59;51.30
5812;BME280;2932;52.400;9.558;2023-07-09T06:58:45;101326.84;;;27.63;51.21
5812;BME280;2932;52.400;9.558;2023-07-09T07:01:12;101320.97;;;27.70;50.97
5812;BME280;2932;52.400;9.558;2023-07-09T07:03:37;101322.03;;;27.76;50.33
5812;BME280;2932;52.400;9.558;2023-07-09T07:06:03;101326.53;;;27.89;50.70
5812;BME280;2932;52.400;9.558;2023-07-09T07:08:31;101327.47;;;27.99;50.23
5812;BME280;2932;52.400;9.558;2023-07-09T07:10:59;101330.31;;;27.99;50.16
5812;BME280;2932;52.400;9.558;2023-07-09T07:13:39;101326.69;;;27.99;50.17
5812;BME280;2932;52.400;9.558;2023-07-09T07:16:07;101331.25;;;28.09;49.93
5812;BME280;2932;52.400;9.558;2023-07-09T07:18:33;101330.25;;;28.15;50.32
5812;BME280;2932;52.400;9.558;2023-07-09T07:20:58;101326.69;;;28.28;50.87
5812;BME280;2932;52.400;9.558;2023-07-09T07:23:24;101332.63;;;28.33;50.21
5812;BME280;2932;52.400;9.558;2023-07-09T07:25:49;101324.66;;;28.41;49.74
5812;BME280;2932;52.400;9.558;2023-07-09T07:28:15;101332.88;;;28.51;50.27
5812;BME280;2932;52.400;9.558;2023-07-09T07:30:41;101321.50;;;28.64;49.56
5812;BME280;2932;52.400;9.558;2023-07-09T07:33:07;101320.97;;;28.82;49.65
5812;BME280;2932;52.400;9.558;2023-07-09T07:35:32;101321.06;;;28.78;49.18
5812;BME280;2932;52.400;9.558;2023-07-09T07:37:58;101323.44;;;28.80;49.24
5812;BME280;2932;52.400;9.558;2023-07-09T07:40:23;101320.28;;;28.91;48.96
5812;BME280;2932;52.400;9.558;2023-07-09T07:42:48;101329.50;;;28.95;48.82
5812;BME280;2932;52.400;9.558;2023-07-09T07:45:14;101318.69;;;29.02;48.79
5812;BME280;2932;52.400;9.558;2023-07-09T07:47:39;101312.41;;;29.07;48.55
5812;BME280;2932;52.400;9.558;2023-07-09T07:50:06;101320.06;;;29.10;48.52
5812;BME280;2932;52.400;9.558;2023-07-09T07:52:32;101311.84;;;29.12;48.34
5812;BME280;2932;52.400;9.558;2023-07-09T07:54:58;101319.03;;;29.17;48.51
5812;BME280;2932;52.400;9.558;2023-07-09T07:57:24;101317.50;;;29.25;48.65
5812;BME280;2932;52.400;9.558;2023-07-09T07:59:50;101322.16;;;29.32;48.35
5812;BME280;2932;52.400;9.558;2023-07-09T08:02:15;101320.69;;;29.40;47.78
5812;BME280;2932;52.400;9.558;2023-07-09T08:04:41;101312.72;;;29.47;47.74
5812;BME280;2932;52.400;9.558;2023-07-09T08:07:10;101313.06;;;29.49;48.17
5812;BME280;2932;52.400;9.558;2023-07-09T08:09:36;101311.66;;;29.54;48.14
5812;BME280;2932;52.400;9.558;2023-07-09T08:12:03;101316.63;;;29.63;47.66
5812;BME280;2932;52.400;9.558;2023-07-09T08:14:34;101307.72;;;29.73;46.85
5812;BME280;2932;52.400;9.558;2023-07-09T08:16:59;101312.78;;;29.91;46.69
5812;BME280;2932;52.400;9.558;2023-07-09T08:19:25;101314.59;;;29.98;46.93
5812;BME280;2932;52.400;9.558;2023-07-09T08:21:50;101303.09;;;30.10;47.36
5812;BME280;2932;52.400;9.558;2023-07-09T08:24:15;101309.47;;;30.14;46.52
5812;BME280;2932;52.400;9.558;2023-07-09T08:26:41;101314.47;;;30.23;46.04
5812;BME280;2932;52.400;9.558;2023-07-09T08:29:06;101310.88;;;30.32;46.27
5812;BME280;2932;52.400;9.558;2023-07-09T08:31:31;101313.25;;;30.33;46.16
5812;BME280;2932;52.400;9.558;2023-07-09T08:33:56;101311.69;;;30.41;46.06
5812;BME280;2932;52.400;9.558;2023-07-09T08:36:23;101303.19;;;30.50;46.19
5812;BME280;2932;52.400;9.558;2023-07-09T08:38:48;101310.03;;;30.53;45.84
5812;BME280;2932;52.400;9.558;2023-07-09T08:41:32;101309.78;;;30.60;46.02
5812;BME280;2932;52.400;9.558;2023-07-09T08:44:20;101311.44;;;30.79;45.77
5812;BME280;2932;52.400;9.558;2023-07-09T08:46:59;101306.75;;;30.95;45.86
5812;BME280;2932;52.400;9.558;2023-07-09T08:49:41;101302.56;;;31.17;45.67
5812;BME280;2932;52.400;9.558;2023-07-09T08:52:14;101293.03;;;31.21;45.42
5812;BME280;2932;52.400;9.558;2023-07-09T08:54:42;101305.28;;;31.30;45.45
5812;BME280;2932;52.400;9.558;2023-07-09T08:57:18;101294.94;;;31.24;45.47
5812;BME280;2932;52.400;9.558;2023-07-09T08:59:45;101299.75;;;31.45;45.31
5812;BME280;2932;52.400;9.558;2023-07-09T09:02:24;101303.72;;;31.47;45.23
5812;BME280;2932;52.400;9.558;2023-07-09T09:04:52;101294.50;;;31.43;45.29
5812;BME280;2932;52.400;9.558;2023-07-09T09:07:39;101296.56;;;31.34;45.25
5812;BME280;2932;52.400;9.558;2023-07-09T09:10:11;101301.00;;;31.35;45.00
5812;BME280;2932;52.400;9.558;2023-07-09T09:12:44;101304.06;;;31.59;44.92
5812;BME280;2932;52.400;9.558;2023-07-09T09:15:17;101304.41;;;31.70;45.43
5812;BME280;2932;52.400;9.558;2023-07-09T09:17:43;101307.72;;;31.68;45.14
5812;BME280;2932;52.400;9.558;2023-07-09T09:20:22;101298.69;;;31.70;44.95
5812;BME280;2932;52.400;9.558;2023-07-09T09:23:17;101294.06;;;31.91;44.77
5812;BME280;2932;52.400;9.558;2023-07-09T09:25:49;101292.31;;;31.93;44.59
5812;BME280;2932;52.400;9.558;2023-07-09T09:28:15;101293.41;;;32.05;44.91
5812;BME280;2932;52.400;9.558;2023-07-09T09:30:40;101296.91;;;32.09;44.68
5812;BME280;2932;52.400;9.558;2023-07-09T09:33:10;101295.16;;;32.30;44.36
5812;BME280;2932;52.400;9.558;2023-07-09T09:35:41;101293.66;;;32.43;44.47
5812;BME280;2932;52.400;9.558;2023-07-09T09:38:23;101292.34;;;32.63;44.24
5812;BME280;2932;52.400;9.558;2023-07-09T09:40:48;101300.59;;;32.70;43.99
5812;BME280;2932;52.400;9.558;2023-07-09T09:43:16;101298.78;;;32.81;43.97
5812;BME280;2932;52.400;9.558;2023-07-09T09:45:44;101297.50;;;32.83;43.42
5812;BME280;2932;52.400;9.558;2023-07-09T09:48:31;101299.09;;;32.84;43.46
5812;BME280;2932;52.400;9.558;2023-07-09T09:50:57;101299.59;;;32.82;44.97
5812;BME280;2932;52.400;9.558;2023-07-09T09:53:28;101301.78;;;32.87;44.96
5812;BME280;2932;52.400;9.558;2023-07-09T09:55:55;101302.75;;;32.84;45.25
5812;BME280;2932;52.400;9.558;2023-07-09T09:58:27;101310.56;;;32.84;45.52
5812;BME280;2932;52.400;9.558;2023-07-09T10:00:57;101306.75;;;32.87;45.39
5812;BME280;2932;52.400;9.558;2023-07-09T10:03:33;101305.16;;;32.86;45.24
5812;BME280;2932;52.400;9.558;2023-07-09T10:06:04;101298.59;;;32.94;44.91
5812;BME280;2932;52.400;9.558;2023-07-09T10:14:01;101298.66;;;33.09;46.23
5812;BME280;2932;52.400;9.558;2023-07-09T10:16:38;101296.34;;;33.22;45.19
5812;BME280;2932;52.400;9.558;2023-07-09T10:24:50;101307.91;;;33.13;45.57
5812;BME280;2932;52.400;9.558;2023-07-09T10:33:02;101304.94;;;33.22;45.76
5812;BME280;2932;52.400;9.558;2023-07-09T10:35:53;101309.31;;;33.41;45.27
5812;BME280;2932;52.400;9.558;2023-07-09T10:41:01;101308.78;;;33.52;43.75
5812;BME280;2932;52.400;9.558;2023-07-09T10:43:37;101306.41;;;33.51;43.96
5812;BME280;2932;52.400;9.558;2023-07-09T10:46:16;101287.81;;;33.61;44.71
5812;BME280;2932;52.400;9.558;2023-07-09T10:48:48;101292.56;;;33.64;45.37
5812;BME280;2932;52.400;9.558;2023-07-09T10:51:28;101291.81;;;33.78;44.71
5812;BME280;2932;52.400;9.558;2023-07-09T10:56:50;101287.59;;;33.88;44.91
5812;BME280;2932;52.400;9.558;2023-07-09T10:59:34;101291.97;;;33.84;44.33
5812;BME280;2932;52.400;9.558;2023-07-09T11:02:28;101293.84;;;33.87;44.27
5812;BME280;2932;52.400;9.558;2023-07-09T11:04:57;101290.47;;;33.88;43.29
5812;BME280;2932;52.400;9.558;2023-07-09T11:07:33;101290.28;;;34.06;42.82
5812;BME280;2932;52.400;9.558;2023-07-09T11:10:04;101281.28;;;34.13;42.82
5812;BME280;2932;52.400;9.558;2023-07-09T11:12:55;101285.63;;;34.09;42.84
5812;BME280;2932;52.400;9.558;2023-07-09T11:15:25;101289.78;;;34.08;42.91
5812;BME280;2932;52.400;9.558;2023-07-09T11:17:52;101281.28;;;34.13;43.29
5812;BME280;2932;52.400;9.558;2023-07-09T11:20:20;101281.00;;;34.11;42.61
5812;BME280;2932;52.400;9.558;2023-07-09T11:22:53;101283.28;;;34.22;42.41
5812;BME280;2932;52.400;9.558;2023-07-09T11:25:40;101288.56;;;34.38;43.59
5812;BME280;2932;52.400;9.558;2023-07-09T11:28:06;101276.84;;;34.42;44.02
5812;BME280;2932;52.400;9.558;2023-07-09T11:30:33;101282.81;;;34.38;43.81
5812;BME280;2932;52.400;9.558;2023-07-09T11:33:02;101274.25;;;34.44;43.32
5812;BME280;2932;52.400;9.558;2023-07-09T11:35:42;101274.44;;;34.55;43.63
5812;BME280;2932;52.400;9.558;2023-07-09T11:38:20;101265.63;;;34.59;42.57
5812;BME280;2932;52.400;9.558;2023-07-09T11:40:54;101269.97;;;34.69;42.61
5812;BME280;2932;52.400;9.558;2023-07-09T11:43:47;101268.97;;;34.72;42.75
5812;BME280;2932;52.400;9.558;2023-07-09T11:46:17;101255.81;;;34.65;42.55
5812;BME280;2932;52.400;9.558;2023-07-09T11:48:43;101259.44;;;34.81;41.30
5812;BME280;2932;52.400;9.558;2023-07-09T11:51:21;101252.28;;;34.91;40.72
5812;BME280;2932;52.400;9.558;2023-07-09T11:53:51;101254.78;;;34.83;39.73
5812;BME280;2932;52.400;9.558;2023-07-09T11:56:22;101257.75;;;34.89;40.69
5812;BME280;2932;52.400;9.558;2023-07-09T11:58:51;101249.78;;;34.98;41.07
5812;BME280;2932;52.400;9.558;2023-07-09T12:01:19;101247.41;;;34.97;41.17
5812;BME280;2932;52.400;9.558;2023-07-09T12:03:46;101245.09;;;35.01;40.68
5812;BME280;2932;52.400;9.558;2023-07-09T12:08:46;101259.06;;;35.08;40.96
5812;BME280;2932;52.400;9.558;2023-07-09T12:11:23;101254.97;;;35.15;40.88
5812;BME280;2932;52.400;9.558;2023-07-09T12:13:50;101244.28;;;35.15;41.24
5812;BME280;2932;52.400;9.558;2023-07-09T12:16:24;101251.59;;;35.16;40.61
5812;BME280;2932;52.400;9.558;2023-07-09T12:18:50;101241.44;;;35.21;40.12
5812;BME280;2932;52.400;9.558;2023-07-09T12:21:16;101242.97;;;35.16;40.70
5812;BME280;2932;52.400;9.558;2023-07-09T12:23:41;101245.69;;;35.25;41.17
5812;BME280;2932;52.400;9.558;2023-07-09T12:26:13;101226.84;;;35.24;40.42
5812;BME280;2932;52.400;9.558;2023-07-09T12:28:38;101231.00;;;35.23;39.94
5812;BME280;2932;52.400;9.558;2023-07-09T12:31:04;101225.94;;;35.33;40.14
5812;BME280;2932;52.400;9.558;2023-07-09T12:33:29;101228.66;;;35.42;40.89
5812;BME280;2932;52.400;9.558;2023-07-09T12:35:59;101219.28;;;35.27;40.77
5812;BME280;2932;52.400;9.558;2023-07-09T12:38:28;101224.13;;;35.15;40.65
5812;BME280;2932;52.400;9.558;2023-07-09T12:40:55;101215.63;;;35.06;40.79
5812;BME280;2932;52.400;9.558;2023-07-09T12:43:26;101207.22;;;35.02;40.79
5812;BME280;2932;52.400;9.558;2023-07-09T12:45:57;101213.78;;;35.43;40.52
5812;BME280;2932;52.400;9.558;2023-07-09T12:48:26;101212.97;;;35.43;40.45
5812;BME280;2932;52.400;9.558;2023-07-09T12:50:55;101207.28;;;35.49;40.32
5812;BME280;2932;52.400;9.558;2023-07-09T12:53:23;101214.41;;;35.53;40.54
5812;BME280;2932;52.400;9.558;2023-07-09T12:55:55;101211.25;;;35.51;40.19
5812;BME280;2932;52.400;9.558;2023-07-09T12:58:28;101207.63;;;35.56;40.12
5812;BME280;2932;52.400;9.558;2023-07-09T13:00:55;101194.53;;;35.55;40.34
5812;BME280;2932;52.400;9.558;2023-07-09T13:03:25;101204.47;;;35.54;39.71
5812;BME280;2932;52.400;9.558;2023-07-09T13:06:03;101200.19;;;35.70;39.51
5812;BME280;2932;52.400;9.558;2023-07-09T13:08:32;101191.69;;;35.81;40.16
5812;BME280;2932;52.400;9.558;2023-07-09T13:10:59;101188.63;;;35.90;39.96
5812;BME280;2932;52.400;9.558;2023-07-09T13:13:25;101185.91;;;35.81;39.34
5812;BME280;2932;52.400;9.558;2023-07-09T13:16:01;101175.75;;;35.86;40.17
5812;BME280;2932;52.400;9.558;2023-07-09T13:18:27;101176.09;;;35.93;39.69
5812;BME280;2932;52.400;9.558;2023-07-09T13:20:55;101169.03;;;35.94;40.54
5812;BME280;2932;52.400;9.558;2023-07-09T13:23:23;101161.63;;;35.88;39.88
5812;BME280;2932;52.400;9.558;2023-07-09T13:25:49;101171.25;;;35.79;40.14
5812;BME280;2932;52.400;9.558;2023-07-09T13:28:23;101156.25;;;35.75;40.37
5812;BME280;2932;52.400;9.558;2023-07-09T13:30:53;101160.38;;;35.94;40.49
5812;BME280;2932;52.400;9.558;2023-07-09T13:33:20;101162.94;;;35.87;38.94
5812;BME280;2932;52.400;9.558;2023-07-09T13:35:46;101161.31;;;35.80;39.77
5812;BME280;2932;52.400;9.558;2023-07-09T13:38:16;101156.06;;;35.79;40.08
5812;BME280;2932;52.400;9.558;2023-07-09T13:40:43;101145.59;;;35.81;39.14
5812;BME280;2932;52.400;9.558;2023-07-09T13:43:19;101143.63;;;35.93;39.47
5812;BME280;2932;52.400;9.558;2023-07-09T13:45:45;101146.84;;;36.06;39.68